Time;durP1;ratioP1;P1;durP2;ratioP2;P2;SDS_P1;SDS_P2;PMS_P1;PMS_P2;Temp;Humidity;BMP_temperature;BMP_pressure;BME280_temperature;BME280_humidity;BME280_pressure;Samples;Min_cycle;Max_cycle;Signal;HPM_P1;HPM_P2
2022/07/30 00:01:16;;;;;;;5.60;2.85;;;;;;;20.91;53.81;99946.88;5011254;28;20441;-63
2022/07/30 00:03:43;;;;;;;3.95;2.58;;;;;;;20.87;53.92;99941.94;5011199;28;20054;-62
2022/07/30 00:06:09;;;;;;;5.50;3.05;;;;;;;20.83;53.89;99941.41;5011275;28;20062;-62
2022/07/30 00:08:36;;;;;;;5.03;2.95;;;;;;;20.77;54.03;99944.66;5010959;28;20154;-63
2022/07/30 00:11:03;;;;;;;7.68;2.80;;;;;;;20.72;53.71;99939.78;5011454;28;20058;-62
2022/07/30 00:13:29;;;;;;;4.88;2.72;;;;;;;20.66;53.64;99946.56;5011891;28;20057;-63
2022/07/30 00:15:56;;;;;;;4.57;2.90;;;;;;;20.59;53.59;99942.78;4997645;28;20050;-64
2022/07/30 00:18:23;;;;;;;7.05;3.10;;;;;;;20.54;53.94;99940.56;4997130;28;20125;-62
2022/07/30 00:20:50;;;;;;;5.70;3.05;;;;;;;20.48;54.07;99933.13;5014761;28;20444;-64
2022/07/30 00:23:17;;;;;;;6.20;2.90;;;;;;;20.44;54.02;99934.41;5014428;28;20053;-62
2022/07/30 00:25:44;;;;;;;5.05;3.10;;;;;;;20.38;54.33;99927.84;5014529;28;20046;-62
2022/07/30 00:28:10;;;;;;;4.00;2.78;;;;;;;20.35;54.32;99927.28;5014548;28;20061;-64
2022/07/30 00:30:39;;;;;;;9.77;2.92;;;;;;;20.31;54.44;99924.91;5014548;28;20057;-62
2022/07/30 00:33:06;;;;;;;3.58;2.72;;;;;;;20.27;54.62;99920.84;5014473;28;20082;-62
2022/07/30 00:35:34;;;;;;;3.92;2.83;;;;;;;20.24;54.14;99929.16;5014404;28;20133;-62
2022/07/30 00:38:01;;;;;;;5.65;3.20;;;;;;;20.20;54.49;99926.91;5014401;28;20054;-64
2022/07/30 00:40:28;;;;;;;3.22;2.72;;;;;;;20.15;54.18;99925.53;4997077;28;20058;-62
2022/07/30 00:42:54;;;;;;;5.28;3.30;;;;;;;20.12;54.46;99928.50;5014371;28;20054;-63
2022/07/30 00:45:21;;;;;;;5.57;3.15;;;;;;;20.08;54.62;99921.78;5014691;28;20066;-63
2022/07/30 00:47:48;;;;;;;6.35;3.03;;;;;;;20.04;54.46;99917.69;5014036;28;20050;-61
2022/07/30 00:50:15;;;;;;;4.05;3.03;;;;;;;20.01;54.58;99917.97;5013666;28;20054;-61
2022/07/30 00:52:42;;;;;;;3.20;2.83;;;;;;;19.97;54.34;99921.91;4996980;28;20058;-63
2022/07/30 00:55:12;;;;;;;6.88;3.15;;;;;;;19.92;54.37;99920.50;4996601;28;20045;-64
2022/07/30 00:57:39;;;;;;;4.32;2.80;;;;;;;19.89;54.56;99914.63;5014126;28;20084;-61
2022/07/30 01:00:09;;;;;;;8.52;3.25;;;;;;;19.84;54.96;99909.69;4996352;28;20057;-63
2022/07/30 01:02:35;;;;;;;5.47;2.80;;;;;;;19.82;54.84;99908.16;4996445;28;20060;-63
2022/07/30 01:05:03;;;;;;;4.10;2.65;;;;;;;19.79;54.77;99909.28;5014098;28;20054;-62
2022/07/30 01:07:29;;;;;;;4.18;2.85;;;;;;;19.76;54.83;99907.75;4996389;28;20100;-63
2022/07/30 01:09:56;;;;;;;6.47;3.20;;;;;;;19.73;55.31;99904.53;5013553;28;20078;-62
2022/07/30 01:12:25;;;;;;;4.07;3.08;;;;;;;19.70;55.31;99905.63;5013526;28;20057;-62
2022/07/30 01:14:54;;;;;;;5.43;2.83;;;;;;;19.67;54.92;99900.59;4996302;28;20049;-62
2022/07/30 01:17:21;;;;;;;3.60;3.25;;;;;;;19.64;55.58;99895.53;4995974;28;20489;-61
2022/07/30 01:19:51;;;;;;;5.47;3.58;;;;;;;19.60;55.64;99888.81;5013007;28;20062;-61
2022/07/30 01:22:21;;;;;;;5.95;3.10;;;;;;;19.57;56.02;99899.75;4996029;28;20046;-64
2022/07/30 01:25:00;;;;;;;6.93;3.20;;;;;;;19.54;56.30;99895.56;5013132;28;20477;-64
2022/07/30 01:27:33;;;;;;;8.40;3.33;;;;;;;19.51;55.66;99888.69;4996242;28;20072;-62
2022/07/30 01:30:03;;;;;;;8.27;3.28;;;;;;;19.48;56.17;99893.47;5013080;28;20057;-62
2022/07/30 01:32:33;;;;;;;4.13;2.58;;;;;;;19.46;56.17;99895.41;4996163;28;20069;-64
2022/07/30 01:35:01;;;;;;;5.57;3.08;;;;;;;19.44;56.30;99895.56;5013291;28;20624;-61
2022/07/30 01:37:30;;;;;;;3.53;2.55;;;;;;;19.43;56.13;99896.56;4996014;28;20049;-63
2022/07/30 01:39:58;;;;;;;3.85;3.03;;;;;;;19.40;55.98;99895.00;5012959;28;20079;-62
2022/07/30 01:42:27;;;;;;;3.92;2.90;;;;;;;19.39;55.70;99893.34;4995771;28;20049;-63
2022/07/30 01:44:56;;;;;;;4.82;3.30;;;;;;;19.37;56.07;99894.47;5012846;28;20695;-61
2022/07/30 01:47:24;;;;;;;3.70;2.78;;;;;;;19.36;55.83;99888.28;4995447;28;20042;-63
2022/07/30 01:49:53;;;;;;;3.53;3.10;;;;;;;19.34;56.38;99892.06;4995560;28;20064;-61
2022/07/30 01:52:22;;;;;;;3.47;2.67;;;;;;;19.32;56.20;99894.06;4995570;28;20049;-62
2022/07/30 01:54:51;;;;;;;4.63;3.30;;;;;;;19.31;56.25;99887.84;4995393;28;20045;-62
2022/07/30 01:57:19;;;;;;;8.20;3.60;;;;;;;19.30;56.71;99888.00;5013199;28;20046;-61
2022/07/30 01:59:49;;;;;;;3.88;3.25;;;;;;;19.28;56.42;99882.78;5012491;28;20054;-62
2022/07/30 02:02:15;;;;;;;4.63;3.08;;;;;;;19.29;56.55;99884.50;5012992;28;20108;-62
2022/07/30 02:04:44;;;;;;;4.07;2.55;;;;;;;19.27;56.03;99897.13;5012770;28;20075;-61
2022/07/30 02:07:16;;;;;;;6.00;3.20;;;;;;;19.26;55.93;99887.44;4995290;28;20049;-63
2022/07/30 02:10:06;;;;;;;5.13;2.92;;;;;;;19.20;56.92;99893.31;4995013;28;20481;-61
2022/07/30 02:12:39;;;;;;;3.83;2.90;;;;;;;19.23;56.77;99893.91;5012754;28;20049;-64
2022/07/30 02:15:33;;;;;;;4.40;2.92;;;;;;;19.21;57.25;99893.19;5012718;28;20064;-62
2022/07/30 02:18:15;;;;;;;5.55;2.65;;;;;;;19.24;56.64;99889.41;4995327;28;20379;-61
2022/07/30 02:20:45;;;;;;;7.20;3.20;;;;;;;19.21;56.69;99885.19;4995145;28;20530;-62
2022/07/30 02:23:17;;;;;;;5.10;2.88;;;;;;;19.21;56.55;99890.53;5012657;28;20060;-61
2022/07/30 02:25:48;;;;;;;2.97;2.33;;;;;;;19.18;57.15;99895.31;4995035;28;20061;-62
2022/07/30 02:28:17;;;;;;;7.45;3.17;;;;;;;19.17;56.61;99897.13;5012137;28;20673;-62
2022/07/30 02:30:49;;;;;;;4.82;3.08;;;;;;;19.13;56.74;99893.91;4995117;28;20050;-62
2022/07/30 02:33:22;;;;;;;5.20;2.75;;;;;;;19.11;56.80;99879.84;4995204;28;20112;-62
2022/07/30 02:35:51;;;;;;;;;;;;;;;19.10;56.32;99890.69;4995710;28;20050;-62
2022/07/30 02:38:20;;;;;;;3.88;2.97;;;;;;;19.13;56.34;99887.72;5011126;28;20567;-63
2022/07/30 02:40:48;;;;;;;4.95;2.75;;;;;;;19.08;56.13;99888.16;4994623;28;20068;-62
2022/07/30 02:43:16;;;;;;;3.45;2.90;;;;;;;19.06;56.32;99894.59;4994960;28;20433;-61
2022/07/30 02:45:45;;;;;;;5.38;2.80;;;;;;;19.01;56.70;99895.84;5012330;28;20057;-61
2022/07/30 02:48:15;;;;;;;3.65;3.13;;;;;;;18.99;56.82;99891.63;4994712;28;20417;-62
2022/07/30 02:51:02;;;;;;;4.88;3.05;;;;;;;18.98;57.04;99897.91;4984120;28;20085;-61
2022/07/30 02:53:29;;;;;;;4.40;3.08;;;;;;;18.97;56.81;99898.91;4994679;28;20493;-62
2022/07/30 02:55:59;;;;;;;8.20;3.35;;;;;;;18.95;56.97;99890.22;5012025;28;20405;-62
2022/07/30 02:58:27;;;;;;;5.75;3.17;;;;;;;18.92;57.19;99896.69;4994307;28;20048;-64
2022/07/30 03:00:55;;;;;;;5.43;3.38;;;;;;;18.91;57.01;99894.97;5012000;28;20049;-64
2022/07/30 03:03:27;;;;;;;3.97;2.88;;;;;;;18.89;57.14;99892.44;4994409;28;20073;-63
2022/07/30 03:05:55;;;;;;;8.00;3.78;;;;;;;18.89;57.38;99895.09;4994731;28;20386;-63
2022/07/30 03:08:25;;;;;;;5.43;4.60;;;;;;;18.89;57.49;99907.63;4994159;28;20096;-64
2022/07/30 03:10:54;;;;;;;6.57;4.07;;;;;;;18.89;57.86;99896.94;5011516;28;20497;-62
2022/07/30 03:13:23;;;;;;;4.28;3.05;;;;;;;18.89;57.64;99892.44;4994347;28;20049;-61
2022/07/30 03:15:51;;;;;;;4.78;3.50;;;;;;;18.89;57.11;99903.09;4994243;28;20057;-62
2022/07/30 03:18:20;;;;;;;4.75;3.22;;;;;;;18.87;57.44;99897.06;4993918;28;20048;-64
2022/07/30 03:20:52;;;;;;;5.45;3.08;;;;;;;18.86;57.37;99892.72;4993944;28;20065;-63
2022/07/30 03:23:20;;;;;;;3.25;2.95;;;;;;;18.88;57.24;99901.44;4994367;28;20501;-62
2022/07/30 03:25:53;;;;;;;4.88;3.15;;;;;;;18.85;57.13;99900.88;4994159;28;20050;-63
2022/07/30 03:28:22;;;;;;;6.18;3.78;;;;;;;18.83;57.42;99906.34;4994017;28;20046;-61
2022/07/30 03:30:50;;;;;;;5.40;3.80;;;;;;;18.81;57.12;99899.44;5010959;28;20054;-63
2022/07/30 03:33:18;;;;;;;5.38;3.95;;;;;;;18.79;57.43;99904.91;4994104;28;20053;-62
2022/07/30 03:35:47;;;;;;;5.90;3.90;;;;;;;18.77;57.53;99900.72;4993873;28;20384;-62
2022/07/30 03:38:15;;;;;;;7.55;4.07;;;;;;;18.75;57.98;99898.19;5011134;28;20049;-63
2022/07/30 03:40:44;;;;;;;6.05;4.20;;;;;;;18.74;57.95;99897.34;5011062;28;20050;-62
2022/07/30 03:43:13;;;;;;;6.65;4.35;;;;;;;18.73;58.00;99894.81;4993820;28;20418;-63
2022/07/30 03:46:01;;;;;;;6.40;4.43;;;;;;;18.74;58.15;99902.69;4996545;28;20053;-64
2022/07/30 03:48:29;;;;;;;8.07;4.90;;;;;;;18.77;58.09;99904.22;4994527;28;20054;-62
2022/07/30 03:50:57;;;;;;;6.30;4.43;;;;;;;18.78;58.43;99905.91;4997850;28;20060;-62
2022/07/30 03:53:24;;;;;;;8.07;4.93;;;;;;;18.79;58.41;99899.59;4997699;28;20053;-62
2022/07/30 03:55:52;;;;;;;7.50;4.93;;;;;;;18.83;58.45;99897.47;4997917;28;20065;-64
2022/07/30 03:58:19;;;;;;;5.68;4.32;;;;;;;18.84;58.14;99902.69;4997658;28;20054;-62
2022/07/30 04:00:48;;;;;;;4.72;3.45;;;;;;;18.87;58.27;99904.22;5015049;28;20097;-62
2022/07/30 04:03:25;;;;;;;5.50;3.85;;;;;;;18.83;58.31;99903.66;4997887;28;20042;-61
2022/07/30 04:05:52;;;;;;;5.72;4.50;;;;;;;18.89;57.98;99908.44;4997775;28;20124;-62
2022/07/30 04:08:19;;;;;;;5.03;4.15;;;;;;;18.91;57.87;99915.47;4997574;28;20062;-61
2022/07/30 04:10:47;;;;;;;5.95;4.65;;;;;;;18.91;58.00;99910.16;5014885;28;20498;-62
2022/07/30 04:13:14;;;;;;;6.13;4.47;;;;;;;18.91;58.15;99920.81;4997610;28;20060;-63
2022/07/30 04:15:50;;;;;;;5.18;4.10;;;;;;;18.88;58.57;99922.75;4997610;28;20409;-62
2022/07/30 04:18:41;;;;;;;6.05;3.75;;;;;;;18.91;58.50;99924.31;5014823;28;20046;-62
2022/07/30 04:21:11;;;;;;;6.57;4.32;;;;;;;18.94;57.91;99928.50;4997294;28;20473;-62
2022/07/30 04:23:44;;;;;;;6.22;4.40;;;;;;;18.92;58.09;99919.81;4997939;28;20049;-62
2022/07/30 04:26:31;;;;;;;7.45;4.60;;;;;;;18.94;58.18;99925.84;5014676;28;20060;-62
2022/07/30 04:28:59;;;;;;;5.20;3.83;;;;;;;18.94;57.95;99926.72;5014251;28;20080;-62
2022/07/30 04:31:27;;;;;;;8.73;4.82;;;;;;;18.94;58.37;99925.84;4997040;28;20449;-63
2022/07/30 04:33:54;;;;;;;6.30;5.15;;;;;;;18.96;58.57;99938.09;4997317;28;20049;-62
2022/07/30 04:36:29;;;;;;;9.90;5.22;;;;;;;18.98;58.50;99928.13;5014474;28;20050;-64
2022/07/30 04:38:57;;;;;;;7.43;4.68;;;;;;;19.00;58.67;99930.66;5014038;28;20407;-62
2022/07/30 04:41:24;;;;;;;16.42;5.50;;;;;;;19.01;58.72;99935.00;4996586;28;20064;-63
2022/07/30 04:43:51;;;;;;;12.20;5.60;;;;;;;19.02;58.39;99940.19;4997191;28;20053;-62
2022/07/30 04:46:18;;;;;;;6.65;4.35;;;;;;;19.06;58.38;99932.78;4996970;28;20559;-62
2022/07/30 04:48:45;;;;;;;6.47;4.03;;;;;;;19.09;58.37;99940.53;4980585;28;20046;-62
2022/07/30 04:51:30;;;;;;;7.28;4.53;;;;;;;19.07;59.08;99942.50;5013871;28;20502;-61
2022/07/30 04:53:58;;;;;;;8.13;4.72;;;;;;;19.13;58.59;99947.25;4996809;28;20053;-62
2022/07/30 04:56:27;;;;;;;5.45;4.45;;;;;;;19.14;58.68;99954.28;5014293;28;20137;-62
2022/07/30 04:58:55;;;;;;;6.15;4.38;;;;;;;19.17;58.66;99963.00;4996644;28;20054;-63
2022/07/30 05:01:26;;;;;;;8.52;5.10;;;;;;;19.17;58.76;99958.50;5012645;28;20054;-62
2022/07/30 05:04:07;;;;;;;9.10;4.95;;;;;;;19.19;58.96;99958.34;5013285;28;20672;-61
2022/07/30 05:06:35;;;;;;;6.93;5.53;;;;;;;19.19;nan;99961.88;4996232;28;20061;-62
2022/07/30 05:09:03;;;;;;;6.18;4.97;;;;;;;19.21;58.98;99959.91;5013777;28;20042;-61
2022/07/30 05:11:29;;;;;;;6.55;5.25;;;;;;;19.23;59.08;99959.78;5013857;28;20048;-64
2022/07/30 05:13:56;;;;;;;6.97;6.03;;;;;;;19.26;59.26;99962.16;5014131;28;20056;-61
2022/07/30 05:16:23;;;;;;;8.93;6.60;;;;;;;19.28;59.25;99960.19;5013916;28;20042;-62
2022/07/30 05:18:50;;;;;;;9.35;6.35;;;;;;;19.31;59.18;99965.25;5013524;28;20049;-62
2022/07/30 05:21:17;;;;;;;9.48;6.03;;;;;;;19.34;59.44;99970.31;5013157;28;20054;-63
2022/07/30 05:23:44;;;;;;;9.15;6.75;;;;;;;19.38;59.30;99970.88;4996538;28;20405;-62
2022/07/30 05:26:20;;;;;;;7.03;5.80;;;;;;;19.39;59.46;99968.06;5013637;28;20058;-61
2022/07/30 05:28:46;;;;;;;8.05;6.07;;;;;;;19.46;59.29;99973.69;4995984;28;20046;-63
2022/07/30 05:31:20;;;;;;;7.65;6.25;;;;;;;19.50;59.44;99975.09;5013521;28;20057;-61
2022/07/30 05:33:47;;;;;;;8.82;6.80;;;;;;;19.54;59.44;99972.97;5013576;28;20477;-66
2022/07/30 05:36:14;;;;;;;9.75;6.20;;;;;;;19.57;59.44;99975.38;5013261;28;20056;-61
2022/07/30 05:38:41;;;;;;;10.70;6.30;;;;;;;19.62;59.43;99983.81;5013278;28;20066;-62
2022/07/30 05:41:08;;;;;;;9.65;6.82;;;;;;;19.66;59.50;99985.22;5013389;28;20054;-63
2022/07/30 05:43:55;;;;;;;8.48;6.07;;;;;;;19.72;59.67;99985.63;4999235;28;20049;-61
2022/07/30 05:46:22;;;;;;;7.88;7.07;;;;;;;19.75;59.67;99993.34;5013283;28;20505;-61
2022/07/30 05:48:49;;;;;;;10.63;7.32;;;;;;;19.78;59.34;99993.91;4995785;28;20068;-63
2022/07/30 05:51:18;;;;;;;9.15;7.30;;;;;;;19.81;59.41;99995.44;4995767;28;20057;-62
2022/07/30 05:53:44;;;;;;;10.48;6.90;;;;;;;19.83;59.36;99987.31;4995825;28;20058;-62
2022/07/30 05:56:11;;;;;;;9.30;7.50;;;;;;;19.86;59.44;99998.56;5013195;28;20061;-62
2022/07/30 05:58:38;;;;;;;9.63;7.07;;;;;;;19.91;59.25;99998.13;5012874;28;20405;-62
2022/07/30 06:01:04;;;;;;;11.77;8.02;;;;;;;19.96;59.07;100000.38;5013212;28;20065;-62
2022/07/30 06:03:31;;;;;;;8.43;7.43;;;;;;;19.99;58.49;99992.09;5012911;28;20049;-61
2022/07/30 06:05:58;;;;;;;10.90;7.68;;;;;;;20.03;58.85;99988.13;5013081;28;20075;-63
2022/07/30 06:08:24;;;;;;;11.43;7.93;;;;;;;20.07;58.64;99994.06;5012900;28;20408;-62
2022/07/30 06:10:52;;;;;;;7.90;7.10;;;;;;;20.11;58.76;100000.81;5012604;28;20046;-62
2022/07/30 06:13:18;;;;;;;13.10;7.97;;;;;;;20.14;58.40;99996.00;5012430;28;20054;-62
2022/07/30 06:15:45;;;;;;;8.85;7.03;;;;;;;20.18;58.49;99994.72;5012867;28;20060;-62
2022/07/30 06:18:12;;;;;;;10.95;7.63;;;;;;;20.22;58.44;99989.09;4994803;28;20540;-64
2022/07/30 06:20:40;;;;;;;8.65;6.70;;;;;;;20.27;58.26;100000.19;5012142;28;20066;-64
2022/07/30 06:23:07;;;;;;;10.70;7.25;;;;;;;20.28;58.26;100008.06;5012344;28;20057;-62
2022/07/30 06:25:34;;;;;;;9.73;7.40;;;;;;;20.33;58.38;100009.47;5011977;28;20050;-62
2022/07/30 06:28:04;;;;;;;11.43;7.55;;;;;;;20.36;57.98;100011.84;4995272;28;20500;-65
2022/07/30 06:30:51;;;;;;;9.82;7.38;;;;;;;20.42;58.09;100012.09;5012698;28;20107;-64
2022/07/30 06:33:18;;;;;;;14.48;7.03;;;;;;;20.46;57.92;100012.66;5012383;28;20054;-62
2022/07/30 06:35:44;;;;;;;12.02;7.05;;;;;;;20.49;57.90;100014.19;5012227;28;20053;-64
2022/07/30 06:38:11;;;;;;;10.43;7.63;;;;;;;20.52;57.67;100013.91;5012220;28;20065;-62
2022/07/30 06:40:38;;;;;;;9.13;7.47;;;;;;;20.55;58.09;100016.28;4994072;28;20052;-62
2022/07/30 06:43:05;;;;;;;10.88;6.93;;;;;;;20.59;58.01;100016.84;5012515;28;20041;-65
2022/07/30 06:45:32;;;;;;;9.25;6.97;;;;;;;20.63;57.62;100020.91;5012195;28;20057;-63
2022/07/30 06:47:58;;;;;;;9.88;6.75;;;;;;;20.66;57.67;100024.13;5012056;28;20438;-64
2022/07/30 06:50:25;;;;;;;12.15;7.40;;;;;;;20.70;57.20;100016.63;5011987;28;20046;-63
2022/07/30 06:52:52;;;;;;;8.43;6.93;;;;;;;;;;5011526;28;20115;-65
2022/07/30 06:55:19;;;;;;;12.90;7.38;;;;;;;20.80;57.17;100019.28;5012165;28;20413;-65
2022/07/30 06:57:45;;;;;;;9.60;7.40;;;;;;;20.83;57.27;100029.69;5012011;28;20052;-62
2022/07/30 07:00:12;;;;;;;10.80;7.38;;;;;;;20.88;57.22;100022.09;5011669;28;20053;-62
2022/07/30 07:02:41;;;;;;;9.70;7.03;;;;;;;20.92;56.76;100027.97;5012030;28;20076;-62
2022/07/30 07:05:08;;;;;;;9.80;6.50;;;;;;;20.95;56.81;100023.19;5011500;28;20081;-61
2022/07/30 07:07:36;;;;;;;10.70;7.15;;;;;;;21.00;56.87;100027.25;4994642;28;20050;-63
2022/07/30 07:10:11;;;;;;;8.57;6.63;;;;;;;21.05;56.69;100019.63;5011509;28;20490;-62
2022/07/30 07:12:38;;;;;;;10.82;7.30;;;;;;;21.10;56.63;100025.34;5012167;28;20057;-61
2022/07/30 07:15:05;;;;;;;11.15;6.95;;;;;;;21.14;56.62;100024.06;5011651;28;20050;-61
2022/07/30 07:17:32;;;;;;;8.55;6.97;;;;;;;21.19;56.46;100026.28;4994166;28;20049;-61
2022/07/30 07:19:59;;;;;;;8.07;6.00;;;;;;;21.25;56.37;100032.88;5011041;28;20088;-62
2022/07/30 07:22:28;;;;;;;7.47;6.22;;;;;;;21.29;56.30;100020.88;5011378;28;20048;-62
2022/07/30 07:24:55;;;;;;;7.35;6.32;;;;;;;21.33;56.14;100024.91;5011001;28;20057;-62
2022/07/30 07:27:22;;;;;;;9.20;6.25;;;;;;;21.37;56.40;100020.94;5011368;28;20494;-63
2022/07/30 07:29:48;;;;;;;9.02;6.10;;;;;;;21.44;56.44;100021.19;5011402;28;20050;-61
2022/07/30 07:32:31;;;;;;;10.05;6.18;;;;;;;21.52;56.30;100029.31;5011599;28;20293;-61
2022/07/30 07:34:58;;;;;;;9.68;5.70;;;;;;;21.59;56.24;100030.38;5011723;28;20046;-63
2022/07/30 07:37:25;;;;;;;6.82;5.47;;;;;;;21.64;56.14;100029.09;5011674;28;20068;-62
2022/07/30 07:39:51;;;;;;;7.68;5.25;;;;;;;21.71;56.06;100027.44;5011194;28;20050;-61
2022/07/30 07:42:18;;;;;;;7.88;5.53;;;;;;;21.78;56.11;100033.06;5011556;28;20042;-62
2022/07/30 07:44:45;;;;;;;9.63;5.85;;;;;;;21.84;55.92;100030.63;5011441;28;20046;-63
2022/07/30 07:47:11;;;;;;;8.45;5.85;;;;;;;21.90;55.84;100037.19;5011540;28;20046;-63
2022/07/30 07:49:38;;;;;;;7.70;5.70;;;;;;;21.97;55.74;100027.53;5011157;28;20050;-63
2022/07/30 07:52:05;;;;;;;11.40;5.72;;;;;;;22.04;55.41;100030.44;5011631;28;20054;-62
2022/07/30 07:54:32;;;;;;;8.85;5.65;;;;;;;22.11;55.46;100027.97;5011443;28;20054;-61
2022/07/30 07:57:00;;;;;;;11.38;7.25;;;;;;;22.19;55.40;100029.88;5011186;28;20057;-60
2022/07/30 07:59:30;;;;;;;10.40;5.63;;;;;;;22.26;55.01;100029.09;5010987;28;20141;-61
2022/07/30 08:02:06;;;;;;;7.22;5.97;;;;;;;22.34;54.97;100035.50;5011285;28;20081;-61
2022/07/30 08:04:34;;;;;;;7.55;5.35;;;;;;;22.39;54.77;100025.97;4994092;28;20096;-60
2022/07/30 08:07:00;;;;;;;6.50;4.53;;;;;;;22.48;54.76;100026.03;5011655;28;20129;-62
2022/07/30 08:09:28;;;;;;;7.47;5.20;;;;;;;22.56;54.52;100033.31;5011048;28;20050;-60
2022/07/30 08:12:11;;;;;;;7.38;5.75;;;;;;;22.64;54.25;100028.84;4996044;28;20054;-61
2022/07/30 08:14:38;;;;;;;7.78;5.90;;;;;;;22.70;54.47;100027.38;4993765;28;20409;-61
2022/07/30 08:17:05;;;;;;;10.48;6.25;;;;;;;22.77;54.44;100020.34;5011157;28;20053;-63
2022/07/30 08:19:32;;;;;;;9.02;6.05;;;;;;;22.85;54.30;100024.06;5010521;28;20144;-61
2022/07/30 08:21:59;;;;;;;6.93;5.68;;;;;;;22.90;54.21;100025.25;5010815;28;20089;-62
2022/07/30 08:24:26;;;;;;;8.07;5.25;;;;;;;22.98;54.17;100028.97;5011102;28;20058;-61
2022/07/30 08:26:52;;;;;;;8.10;4.90;;;;;;;23.04;53.71;100031.88;5010905;28;20054;-61
2022/07/30 08:29:19;;;;;;;6.70;5.35;;;;;;;23.13;53.73;100031.88;5010914;28;20072;-62
2022/07/30 08:31:46;;;;;;;6.70;5.50;;;;;;;23.20;53.75;100024.00;5011062;28;20050;-62
2022/07/30 08:34:13;;;;;;;9.23;5.82;;;;;;;23.27;53.33;100025.03;5011484;28;20050;-61
2022/07/30 08:36:40;;;;;;;11.63;5.15;;;;;;;23.35;53.25;100022.41;4997243;28;20058;-61
2022/07/30 08:39:07;;;;;;;7.15;4.25;;;;;;;23.45;52.90;100027.63;4993966;28;20646;-63
2022/07/30 08:41:36;;;;;;;6.80;4.20;;;;;;;23.53;53.52;100027.63;4993553;28;20096;-63
2022/07/30 08:44:03;;;;;;;8.60;5.20;;;;;;;23.63;53.02;100030.13;4992202;28;20108;-61
2022/07/30 08:46:41;;;;;;;6.78;4.80;;;;;;;23.72;52.39;100033.69;4994451;28;20045;-61
2022/07/30 08:49:13;;;;;;;7.57;4.18;;;;;;;23.83;52.59;100035.19;4990774;28;20399;-61
2022/07/30 08:51:41;;;;;;;5.32;4.18;;;;;;;23.93;52.38;100030.47;5008807;28;20060;-62
2022/07/30 08:54:09;;;;;;;7.95;4.13;;;;;;;24.02;52.39;100027.78;4995435;28;20042;-61
2022/07/30 08:56:36;;;;;;;7.20;4.85;;;;;;;24.12;52.20;100031.19;5008699;28;20057;-63
2022/07/30 08:59:03;;;;;;;6.03;4.82;;;;;;;24.23;51.64;100037.22;4993418;28;20042;-62
2022/07/30 09:01:29;;;;;;;7.55;4.72;;;;;;;24.30;51.26;100030.97;4996431;28;20073;-66
2022/07/30 09:03:57;;;;;;;12.90;5.45;;;;;;;24.37;51.31;100033.00;5010983;28;20077;-63
2022/07/30 09:06:25;;;;;;;7.15;4.30;;;;;;;24.45;50.61;100036.50;4987729;28;20133;-63
2022/07/30 09:08:53;;;;;;;6.82;3.95;;;;;;;24.54;50.88;100042.72;4994510;28;20490;-63
2022/07/30 09:11:20;;;;;;;5.38;4.32;;;;;;;24.64;51.11;100047.06;4999431;28;20496;-64
2022/07/30 09:13:47;;;;;;;6.28;4.05;;;;;;;24.72;51.03;100041.66;4996368;28;20050;-63
2022/07/30 09:16:22;;;;;;;5.45;4.28;;;;;;;24.80;49.60;100036.22;5013857;28;20391;-62
2022/07/30 09:18:52;;;;;;;4.95;4.10;;;;;;;24.91;49.58;100031.50;5013547;28;20128;-62
2022/07/30 09:21:27;;;;;;;8.40;4.03;;;;;;;24.98;49.36;100035.19;4995611;28;20053;-62
2022/07/30 09:24:00;;;;;;;8.18;3.50;;;;;;;25.05;49.74;100033.47;5013269;28;20046;-64
2022/07/30 09:26:29;;;;;;;7.28;4.80;;;;;;;25.15;49.24;100038.63;4996028;28;20050;-63
2022/07/30 09:29:15;;;;;;;5.80;3.83;;;;;;;25.20;49.69;100048.88;4995802;28;20812;-62
2022/07/30 09:32:04;;;;;;;6.65;3.95;;;;;;;25.30;49.18;100043.28;4996064;28;20184;-62
2022/07/30 09:34:38;;;;;;;4.05;3.20;;;;;;;25.41;48.99;100050.09;4996338;28;20065;-64
2022/07/30 09:37:08;;;;;;;3.83;3.38;;;;;;;25.50;49.81;100044.47;4995572;28;20057;-63
2022/07/30 09:39:39;;;;;;;4.32;3.22;;;;;;;25.60;48.92;100052.34;5012924;28;20061;-62
2022/07/30 09:42:18;;;;;;;5.30;3.83;;;;;;;25.68;48.98;100045.22;4995185;28;20486;-62
2022/07/30 09:44:45;;;;;;;8.30;3.60;;;;;;;25.82;49.03;100049.81;4995104;28;20050;-63
2022/07/30 09:47:33;;;;;;;7.20;3.58;;;;;;;25.87;47.67;100047.41;4995174;28;20065;-64
2022/07/30 09:50:04;;;;;;;3.58;2.90;;;;;;;25.98;48.13;100039.94;4995267;28;20056;-61
2022/07/30 09:52:33;;;;;;;5.32;3.28;;;;;;;26.05;47.59;100038.16;4995630;28;20057;-66
2022/07/30 09:55:00;;;;;;;3.97;2.85;;;;;;;26.10;48.25;100038.47;5012978;28;20131;-62
2022/07/30 09:57:29;;;;;;;5.93;2.97;;;;;;;26.17;48.03;100043.13;5013319;28;20053;-63
2022/07/30 10:00:14;;;;;;;3.97;2.72;;;;;;;26.24;48.42;100044.91;4995386;28;20084;-62
2022/07/30 10:02:41;;;;;;;4.90;2.88;;;;;;;26.35;48.44;100040.94;5011294;28;20046;-62
2022/07/30 10:05:12;;;;;;;3.47;2.45;;;;;;;26.43;46.24;100052.69;5013329;28;20072;-62
2022/07/30 10:07:58;;;;;;;4.13;2.35;;;;;;;26.43;46.10;100041.88;5012822;28;20053;-62
2022/07/30 10:10:28;;;;;;;4.75;2.45;;;;;;;26.49;45.86;100050.09;4994879;28;20060;-62
2022/07/30 10:12:59;;;;;;;4.60;2.63;;;;;;;26.50;45.67;100046.34;4995852;28;20045;-63
2022/07/30 10:15:34;;;;;;;19.02;2.60;;;;;;;26.47;45.67;100040.50;4995438;28;20482;-64
2022/07/30 10:18:03;;;;;;;6.80;2.28;;;;;;;26.49;45.70;100044.69;5012522;28;20046;-62
2022/07/30 10:20:32;;;;;;;11.25;3.15;;;;;;;26.50;45.38;100040.94;4995283;28;20096;-63
2022/07/30 10:23:00;;;;;;;3.42;2.30;;;;;;;26.49;45.11;100052.78;4994724;28;20049;-62
2022/07/30 10:25:35;;;;;;;4.78;2.80;;;;;;;26.48;44.90;100042.16;5012477;28;20273;-62
2022/07/30 10:28:16;;;;;;;3.65;2.50;;;;;;;26.48;45.03;100043.00;4996574;28;20510;-63
2022/07/30 10:30:44;;;;;;;4.80;2.50;;;;;;;26.52;45.08;100040.78;4994956;28;20053;-63
2022/07/30 10:33:11;;;;;;;3.35;2.03;;;;;;;26.57;45.38;100045.63;4995087;28;20045;-62
2022/07/30 10:35:58;;;;;;;31.92;3.95;;;;;;;26.63;45.35;100039.47;4997750;28;20461;-63
2022/07/30 10:38:33;;;;;;;6.50;2.10;;;;;;;26.68;44.79;100037.03;5012220;28;20421;-64
2022/07/30 10:41:23;;;;;;;4.45;2.33;;;;;;;26.74;46.11;100041.72;4995440;28;20046;-63
2022/07/30 10:44:28;;;;;;;3.88;2.63;;;;;;;26.86;44.16;100042.06;4997208;28;20046;-64
2022/07/30 10:47:06;;;;;;;4.68;2.53;;;;;;;26.98;43.94;100037.03;4992569;28;20050;-64
2022/07/30 10:49:35;;;;;;;3.33;2.00;;;;;;;27.14;43.89;100038.69;4975258;28;20128;-63
2022/07/30 10:52:07;;;;;;;5.05;2.67;;;;;;;27.24;44.45;100041.09;4996815;28;20049;-63
2022/07/30 10:54:37;;;;;;;3.38;2.00;;;;;;;27.38;44.56;100044.78;5008518;28;20046;-63
2022/07/30 10:57:08;;;;;;;4.47;2.33;;;;;;;27.64;43.00;100042.56;5011330;28;20124;-63
2022/07/30 10:59:59;;;;;;;3.15;1.85;;;;;;;27.99;45.10;100044.53;5010624;28;20077;-63
2022/07/30 11:02:33;;;;;;;5.15;1.77;;;;;;;28.51;43.81;100044.31;4995018;28;20042;-62
2022/07/30 11:05:33;;;;;;;5.38;1.92;;;;;;;28.91;41.95;100044.53;5011981;28;20077;-62
2022/07/30 11:08:30;;;;;;;2.55;1.95;;;;;;;29.19;41.27;100042.75;4982141;28;20053;-62
2022/07/30 11:11:04;;;;;;;6.40;2.10;;;;;;;29.31;40.07;100045.69;4993600;28;20171;-63
2022/07/30 11:13:51;;;;;;;4.32;2.10;;;;;;;29.35;40.47;100046.97;4995721;28;20057;-62
2022/07/30 11:16:22;;;;;;;2.88;1.85;;;;;;;29.47;40.92;100049.91;4993230;28;20073;-63
2022/07/30 11:19:02;;;;;;;5.55;2.60;;;;;;;29.67;41.63;100049.13;4993893;28;20050;-63
2022/07/30 11:22:30;;;;;;;4.13;2.00;;;;;;;29.99;40.59;100041.22;4996911;28;20045;-62
2022/07/30 11:24:58;;;;;;;4.65;1.92;;;;;;;30.23;39.63;100045.19;5011634;28;20042;-62
2022/07/30 11:27:34;;;;;;;3.72;2.00;;;;;;;30.21;38.34;100050.00;4994089;28;20054;-62
2022/07/30 11:30:04;;;;;;;4.75;2.30;;;;;;;30.21;39.86;100049.16;5011397;28;20054;-64
2022/07/30 11:32:33;;;;;;;3.40;2.28;;;;;;;30.25;40.10;100051.25;4994074;28;20045;-62
2022/07/30 11:35:31;;;;;;;3.83;2.40;;;;;;;30.42;39.64;100042.63;4994079;28;20112;-61
2022/07/30 11:38:08;;;;;;;3.97;2.50;;;;;;;30.80;40.29;100041.13;5011240;28;20049;-61
2022/07/30 11:40:43;;;;;;;3.75;2.42;;;;;;;31.22;39.05;100043.41;5011146;28;20537;-62
2022/07/30 11:43:31;;;;;;;3.85;2.20;;;;;;;31.67;38.61;100034.38;5010836;28;20107;-62
2022/07/30 11:46:06;;;;;;;6.18;2.03;;;;;;;32.18;37.31;100025.38;5010977;28;20046;-62